메인 페이지
METAR-TAF:

METAR-TAF

공항 :

샤르자 국제공항

Sharjah, 아랍에미리트

위도: 25-20N, 경도: 055-31E, 고도: 35m

현재 날씨관측

예보는 48분 전, 11:00시(UTC)에 발표되었습니다.
남남서7kt남동풍과 서남서풍을 오가는
온도 44°C
습도 26%
기압 995 hPa
시정: 8000m

METAR: OMSJ 241100Z 20007KT 140V240 8000 NSC 44/20 Q0995 BECMG 30012KT

시각: 15:48 (11:48 UTC)

예보

예보는 48분 전, 11:00시(UTC)에 발표되었습니다.
예보 대상 시간: 24일 12시부터 25일 18시까지 (UTC)
북북서14kt
시정: 7000m
확률 30% :
일시적
24일 12시부터 24일 15시까지 (UTC)
여러 방향의 바람 20kt, 순간 최대 풍속 35kt
시정: 1500m
고도 4000ft 상공 구름 조금, 타워링 적운.
날린먼지
전환 중
24일 17시부터 24일 19시까지 (UTC)
여러 방향의 바람 2kt
전환 중
25일 04시부터 25일 06시까지 (UTC)
10kt
전환 중
25일 07시부터 25일 09시까지 (UTC)
서북서13kt
전환 중
25일 16시부터 25일 18시까지 (UTC)
여러 방향의 바람 2kt

TAF: OMSJ 241100Z 2412/2518 34014KT 7000 NSC PROB30 TEMPO 2412/2415 VRB20G35KT 1500 BLDU FEW040TCU BECMG 2417/2419 VRB02KT BECMG 2504/2506 18010KT BECMG 2507/2509 30013KT BECMG 2516/2518 VRB02KT

4,000개 이상의 공항 관측 자료 및 예보 (METAR 및 TAF 보고).

지도상에서 검색 가능한 기상관측소가 노란 점과 빨간 점으로 표시되어 있습니다.

기상관측소 명을 보려면 표시 위로 마우스를 이동하세요.

날씨 관측과 예보를 보려면 클릭하세요.

지도 변경 : 확대하려면 엑스 표시가 있는 녹색 버튼, 축소하려면 빼기 표시가 있는 녹색 버튼, 다음 페이지의 지도를 보려면 녹색 화살표를 클릭하세요.


METAR-TAF: